Terminal Aerodrome Forecast
Issued by NWS Charleston, SC

Home | Current Version | Previous Version | Text Only | Print | Product List | Glossary On
Versions: 1 2 3 4 5 6 7 8 9 10 11 12 13 14 15 16 17 18 19 20 21 22 23 24
000
FTUS42 KCHS 302339
TAFCHS
TAF
KCHS 302339Z 3100/3124 12008KT P6SM -RA SCT030 BKN100
     FM310130 12007KT 6SM RA BR SCT010 BKN020
     FM310700 13009KT 5SM BR VCSH SCT008 SCT012 BKN025
     FM311430 11008KT P6SM SCT020 BKN040
     FM312200 17009KT P6SM SCT025 BKN100=

USA.gov is the U.S. government's official web portal to all federal, state and local government web resources and services.